Time;durP1;ratioP1;P1;durP2;ratioP2;P2;SDS_P1;SDS_P2;PMS_P1;PMS_P2;Temp;Humidity;BMP_temperature;BMP_pressure;BME280_temperature;BME280_humidity;BME280_pressure;Samples;Min_cycle;Max_cycle;Signal;HPM_P1;HPM_P2
2021/05/26 00:00:59;;;;;;;4.88;2.20;;;6.70;99.90;;;;;;5034831;28;20079;-67
2021/05/26 00:03:25;;;;;;;4.20;2.50;;;6.60;99.90;;;;;;5034494;28;20079;-66
2021/05/26 00:05:51;;;;;;;3.95;2.50;;;6.70;99.90;;;;;;5034910;28;20025;-66
2021/05/26 00:08:31;;;;;;;3.88;2.60;;;6.60;99.90;;;;;;5034743;28;20030;-66
2021/05/26 00:10:58;;;;;;;3.03;2.40;;;6.50;99.90;;;;;;5034173;28;20112;-66
2021/05/26 00:13:23;;;;;;;3.60;2.63;;;6.40;99.90;;;;;;5034587;28;20021;-66
2021/05/26 00:15:50;;;;;;;3.60;2.10;;;6.30;99.90;;;;;;5034463;28;20117;-66
2021/05/26 00:18:16;;;;;;;3.42;2.38;;;6.20;99.90;;;;;;5034551;28;20026;-66
2021/05/26 00:20:42;;;;;;;2.83;2.20;;;6.20;99.90;;;;;;5034338;28;20484;-66
2021/05/26 00:23:08;;;;;;;6.45;2.38;;;6.20;99.90;;;;;;5034341;28;20469;-66
2021/05/26 00:25:34;;;;;;;3.45;2.35;;;6.30;99.90;;;;;;5034274;28;20028;-66
2021/05/26 00:28:00;;;;;;;4.53;2.35;;;6.30;99.90;;;;;;5034185;28;20021;-66
2021/05/26 00:30:29;;;;;;;4.05;2.47;;;6.30;99.90;;;;;;5034018;28;20124;-66
2021/05/26 00:32:55;;;;;;;3.78;2.28;;;6.40;99.90;;;;;;5034354;28;20048;-66
2021/05/26 00:35:21;;;;;;;2.55;2.30;;;6.40;99.90;;;;;;5034072;28;20075;-66
2021/05/26 00:37:47;;;;;;;3.42;2.20;;;6.50;99.90;;;;;;5033608;28;20053;-66
2021/05/26 00:40:13;;;;;;;3.90;2.33;;;6.50;99.90;;;;;;5034306;28;20481;-66
2021/05/26 00:42:39;;;;;;;2.80;2.13;;;6.50;99.90;;;;;;5033851;28;20057;-65
2021/05/26 00:45:06;;;;;;;3.38;2.60;;;6.50;99.90;;;;;;5034299;28;20056;-66
2021/05/26 00:47:35;;;;;;;3.28;2.28;;;6.50;99.90;;;;;;5033711;28;20028;-65
2021/05/26 00:50:02;;;;;;;2.80;2.30;;;6.50;99.90;;;;;;5034331;28;20115;-65
2021/05/26 00:52:27;;;;;;;2.25;2.05;;;6.50;99.90;;;;;;5033800;28;20029;-65
2021/05/26 00:54:53;;;;;;;3.28;2.47;;;6.50;99.90;;;;;;5033843;28;20034;-66
2021/05/26 00:57:19;;;;;;;5.35;2.30;;;6.50;99.90;;;;;;5033621;28;20025;-66
2021/05/26 00:59:45;;;;;;;17.50;2.58;;;6.50;99.90;;;;;;5033712;28;20045;-66
2021/05/26 01:02:10;;;;;;;7.53;2.40;;;6.50;99.90;;;;;;5033541;28;20029;-66
2021/05/26 01:04:36;;;;;;;5.95;2.50;;;6.60;99.90;;;;;;5033358;28;20500;-66
2021/05/26 01:07:02;;;;;;;3.65;2.30;;;6.60;99.90;;;;;;5033395;28;20097;-66
2021/05/26 01:09:27;;;;;;;2.83;2.20;;;6.50;99.90;;;;;;5033373;28;20026;-66
2021/05/26 01:11:53;;;;;;;4.07;2.30;;;6.50;99.90;;;;;;5033379;28;20022;-67
2021/05/26 01:14:19;;;;;;;3.75;2.33;;;6.60;99.90;;;;;;5033309;28;20072;-67
2021/05/26 01:16:44;;;;;;;6.60;2.72;;;6.60;99.90;;;;;;5033529;28;20109;-67
2021/05/26 01:19:14;;;;;;;5.05;2.17;;;6.60;99.90;;;;;;5033204;28;20029;-66
2021/05/26 01:21:40;;;;;;;3.92;2.13;;;6.60;99.90;;;;;;5032248;28;20409;-66
2021/05/26 01:24:06;;;;;;;3.20;2.20;;;6.60;99.90;;;;;;5033143;28;20030;-66
2021/05/26 01:26:31;;;;;;;4.07;2.47;;;6.60;99.90;;;;;;5033011;28;20128;-66
2021/05/26 01:28:57;;;;;;;3.60;2.20;;;6.60;99.90;;;;;;5033106;28;20108;-66
2021/05/26 01:31:23;;;;;;;2.20;2.00;;;6.70;99.90;;;;;;5033145;28;20041;-66
2021/05/26 01:33:49;;;;;;;2.55;2.00;;;6.60;99.90;;;;;;5033013;28;20026;-66
2021/05/26 01:36:14;;;;;;;3.08;2.28;;;6.60;99.90;;;;;;5032685;28;20571;-66
2021/05/26 01:38:40;;;;;;;3.33;2.25;;;6.60;99.90;;;;;;5032845;28;20120;-66
2021/05/26 01:41:06;;;;;;;3.67;2.10;;;6.60;99.90;;;;;;5032868;28;20469;-66
2021/05/26 01:43:33;;;;;;;3.72;2.33;;;6.70;99.90;;;;;;5032670;28;20033;-67
2021/05/26 01:46:01;;;;;;;3.83;2.30;;;6.70;99.90;;;;;;5032761;28;20384;-67
2021/05/26 01:48:26;;;;;;;4.85;1.90;;;6.70;99.90;;;;;;5032758;28;20084;-67
2021/05/26 01:50:52;;;;;;;2.83;2.22;;;6.70;99.90;;;;;;5032732;28;20030;-67
2021/05/26 01:53:18;;;;;;;2.47;1.90;;;6.70;99.90;;;;;;5032653;28;20026;-67
2021/05/26 01:55:44;;;;;;;3.92;1.90;;;6.70;99.90;;;;;;5014853;28;20109;-67
2021/05/26 01:58:13;;;;;;;2.83;2.17;;;6.70;99.90;;;;;;5032504;28;20041;-67
2021/05/26 02:00:43;;;;;;;3.03;2.13;;;6.80;99.90;;;;;;5032725;28;20080;-67
2021/05/26 02:03:09;;;;;;;3.80;2.67;;;6.80;99.90;;;;;;5032903;28;20468;-66
2021/05/26 02:05:36;;;;;;;4.00;2.70;;;6.80;99.90;;;;;;5032316;28;20615;-66
2021/05/26 02:08:01;;;;;;;4.40;2.15;;;6.80;99.90;;;;;;5032375;28;20389;-66
2021/05/26 02:13:12;;;;;;;4.10;2.30;;;6.90;99.90;;;;;;5032424;28;20075;-66
2021/05/26 02:15:38;;;;;;;2.42;2.05;;;6.90;99.90;;;;;;5032029;28;20029;-66
2021/05/26 02:18:04;;;;;;;4.95;2.30;;;6.90;99.90;;;;;;5032189;28;20100;-66
2021/05/26 02:20:30;;;;;;;2.58;1.88;;;6.90;99.90;;;;;;5032098;28;20045;-66
2021/05/26 02:22:56;;;;;;;3.83;2.10;;;6.90;99.90;;;;;;5032065;28;20029;-66
2021/05/26 02:25:21;;;;;;;3.28;2.22;;;6.90;99.90;;;;;;5032487;28;20079;-67
2021/05/26 02:27:47;;;;;;;2.60;1.92;;;6.90;99.90;;;;;;5031844;28;20021;-67
2021/05/26 02:30:13;;;;;;;4.10;2.10;;;6.90;99.90;;;;;;5032111;28;20065;-67
2021/05/26 02:32:39;;;;;;;2.40;2.03;;;6.90;99.90;;;;;;5031686;28;20439;-66
2021/05/26 02:35:06;;;;;;;3.65;1.77;;;6.90;99.90;;;;;;5032049;28;20096;-67
2021/05/26 02:37:32;;;;;;;2.78;1.80;;;6.90;99.90;;;;;;5031700;28;20056;-67
2021/05/26 02:39:57;;;;;;;3.20;2.10;;;7.00;99.90;;;;;;5032176;28;20119;-67
2021/05/26 02:42:23;;;;;;;2.80;2.05;;;7.00;99.90;;;;;;5031881;28;20553;-66
2021/05/26 02:44:49;;;;;;;4.07;2.28;;;7.00;99.90;;;;;;5031853;28;20035;-67
2021/05/26 02:47:15;;;;;;;4.70;1.90;;;7.10;99.90;;;;;;5031802;28;20021;-67
2021/05/26 02:49:40;;;;;;;2.42;2.20;;;7.20;99.90;;;;;;5031753;28;20080;-66
2021/05/26 02:52:06;;;;;;;2.28;1.90;;;7.10;99.90;;;;;;5014314;28;20072;-67
2021/05/26 02:54:32;;;;;;;3.88;2.13;;;7.10;99.90;;;;;;5031619;28;20025;-67
2021/05/26 02:56:58;;;;;;;2.80;2.03;;;7.20;99.90;;;;;;5031843;28;20057;-66
2021/05/26 02:59:23;;;;;;;2.42;2.03;;;7.20;99.90;;;;;;5031847;28;20112;-67
2021/05/26 03:01:49;;;;;;;2.05;1.67;;;7.20;99.90;;;;;;5031940;28;20555;-66
2021/05/26 03:04:15;;;;;;;8.23;2.10;;;7.30;99.90;;;;;;5031893;28;20112;-66
2021/05/26 03:06:41;;;;;;;2.88;1.83;;;7.30;99.90;;;;;;5031810;28;20529;-66
2021/05/26 03:09:07;;;;;;;3.53;1.92;;;7.40;99.90;;;;;;5031914;28;20037;-67
2021/05/26 03:11:33;;;;;;;2.92;1.80;;;7.40;99.90;;;;;;5031632;28;20022;-66
2021/05/26 03:13:58;;;;;;;1.85;1.67;;;7.40;99.90;;;;;;5031956;28;20032;-66
2021/05/26 03:16:24;;;;;;;2.13;1.70;;;7.50;99.90;;;;;;5031670;28;20091;-66
2021/05/26 03:18:51;;;;;;;2.33;1.85;;;7.50;99.90;;;;;;5031429;28;20050;-66
2021/05/26 03:21:17;;;;;;;2.97;2.00;;;7.50;99.90;;;;;;5032067;28;20021;-66
2021/05/26 03:23:44;;;;;;;3.42;1.80;;;7.50;99.90;;;;;;5031716;28;20032;-66
2021/05/26 03:26:10;;;;;;;2.90;2.08;;;7.50;99.90;;;;;;5031790;28;20048;-66
2021/05/26 03:28:37;;;;;;;3.47;2.20;;;7.50;99.90;;;;;;5031365;28;20029;-66
2021/05/26 03:31:03;;;;;;;5.25;1.80;;;7.60;99.90;;;;;;5031515;28;20534;-66
2021/05/26 03:33:29;;;;;;;4.57;1.80;;;7.50;99.90;;;;;;5031388;28;20025;-66
2021/05/26 03:35:54;;;;;;;2.72;1.77;;;7.50;99.90;;;;;;5031035;28;20033;-66
2021/05/26 03:38:20;;;;;;;3.20;2.03;;;7.60;99.90;;;;;;5031546;28;20037;-67
2021/05/26 03:40:46;;;;;;;3.47;2.03;;;7.70;99.90;;;;;;5013637;28;20392;-67
2021/05/26 03:43:12;;;;;;;3.30;2.33;;;7.70;99.90;;;;;;5031369;28;20028;-66
2021/05/26 03:45:38;;;;;;;2.38;2.08;;;7.70;99.90;;;;;;5033874;28;20037;-67
2021/05/26 03:48:04;;;;;;;3.22;2.08;;;7.70;99.90;;;;;;5035207;28;20034;-66
2021/05/26 03:50:30;;;;;;;3.63;1.85;;;7.70;99.90;;;;;;5034962;28;20034;-66
2021/05/26 03:52:57;;;;;;;2.55;1.77;;;7.80;99.90;;;;;;5034774;28;20473;-67
2021/05/26 03:55:24;;;;;;;4.78;1.80;;;7.80;99.90;;;;;;5035162;28;20482;-67
2021/05/26 03:57:51;;;;;;;3.17;2.15;;;7.80;99.90;;;;;;5034881;28;20034;-66
2021/05/26 04:00:23;;;;;;;3.45;1.85;;;7.80;99.90;;;;;;5034782;28;20037;-67
2021/05/26 04:02:49;;;;;;;2.85;2.25;;;7.90;99.90;;;;;;5034543;28;20481;-67
2021/05/26 04:05:15;;;;;;;3.53;1.95;;;7.90;99.90;;;;;;5034669;28;20025;-67
2021/05/26 04:07:41;;;;;;;6.88;2.15;;;8.00;99.90;;;;;;5034376;28;20017;-67
2021/05/26 04:10:08;;;;;;;2.83;1.80;;;8.10;99.90;;;;;;5034569;28;20029;-67
2021/05/26 04:12:33;;;;;;;2.83;2.10;;;8.50;99.90;;;;;;5034684;28;20033;-67
2021/05/26 04:14:59;;;;;;;2.50;1.80;;;9.10;99.90;;;;;;5034727;28;20095;-67
2021/05/26 04:17:25;;;;;;;2.15;1.48;;;9.60;99.90;;;;;;5034558;28;20048;-67
2021/05/26 04:19:51;;;;;;;3.97;1.77;;;10.20;99.90;;;;;;5034280;28;20068;-67
2021/05/26 04:22:17;;;;;;;8.93;1.70;;;10.70;99.90;;;;;;5034367;28;20036;-67
2021/05/26 04:24:47;;;;;;;1.63;1.38;;;11.00;99.90;;;;;;5034415;28;20029;-66
2021/05/26 04:27:13;;;;;;;1.52;1.42;;;10.90;99.90;;;;;;5034743;28;20025;-67
2021/05/26 04:29:38;;;;;;;2.13;1.40;;;10.80;99.90;;;;;;5016462;28;20115;-67
2021/05/26 04:32:05;;;;;;;2.03;1.60;;;10.70;99.90;;;;;;5034327;28;20108;-68
2021/05/26 04:34:31;;;;;;;3.03;1.77;;;10.60;99.90;;;;;;5034435;28;20053;-67
2021/05/26 04:36:57;;;;;;;3.50;1.50;;;10.60;99.90;;;;;;5033662;28;20651;-68
2021/05/26 04:39:23;;;;;;;4.82;1.30;;;10.50;99.90;;;;;;5033919;28;20041;-72
2021/05/26 04:41:48;;;;;;;3.00;0.70;;;10.40;99.90;;;;;;5033909;28;20036;-77
2021/05/26 04:44:14;;;;;;;1.85;1.55;;;11.60;99.90;;;;;;5034122;28;20431;-73
2021/05/26 04:46:40;;;;;;;2.53;1.50;;;12.00;99.90;;;;;;5033853;28;20021;-69
2021/05/26 04:49:05;;;;;;;4.63;1.17;;;11.50;99.90;;;;;;5033664;28;20484;-69
2021/05/26 04:51:31;;;;;;;5.35;1.33;;;11.00;99.90;;;;;;5033453;28;20059;-69
2021/05/26 04:53:57;;;;;;;1.65;1.30;;;10.80;99.90;;;;;;5030833;28;20025;-68
2021/05/26 04:56:23;;;;;;;2.17;1.50;;;10.60;99.90;;;;;;5001551;28;20034;-69
2021/05/26 04:58:49;;;;;;;1.95;1.42;;;10.40;99.90;;;;;;5004341;28;20743;-68
2021/05/26 05:01:16;;;;;;;1.80;1.38;;;10.40;99.90;;;;;;5003468;28;20027;-68
2021/05/26 05:03:42;;;;;;;1.60;1.40;;;10.50;99.90;;;;;;5001328;28;20105;-69
2021/05/26 05:06:08;;;;;;;1.33;1.17;;;10.50;99.90;;;;;;5001743;28;20018;-72
2021/05/26 05:08:34;;;;;;;10.18;2.08;;;10.50;99.90;;;;;;5003325;28;20061;-72
2021/05/26 05:11:00;;;;;;;2.78;1.48;;;10.90;99.90;;;;;;5003721;28;20061;-73
2021/05/26 05:13:26;;;;;;;4.68;1.40;;;11.30;99.90;;;;;;5001607;28;20031;-73
2021/05/26 05:15:52;;;;;;;2.40;1.30;;;11.70;99.90;;;;;;4996373;28;20080;-73
2021/05/26 05:18:17;;;;;;;2.20;1.15;;;12.00;99.90;;;;;;4996434;28;20033;-75
2021/05/26 05:20:44;;;;;;;2.58;1.27;;;11.90;99.90;;;;;;4996682;28;20069;-72
2021/05/26 05:23:09;;;;;;;3.83;1.40;;;11.80;97.80;;;;;;4994108;28;20101;-73
2021/05/26 05:25:35;;;;;;;2.75;1.10;;;11.60;99.50;;;;;;4993820;28;20106;-73
2021/05/26 05:28:01;;;;;;;1.67;0.90;;;11.60;99.90;;;;;;4993552;28;20041;-72
2021/05/26 05:30:27;;;;;;;5.28;1.02;;;12.90;99.90;;;;;;4993864;28;20029;-70
2021/05/26 05:32:52;;;;;;;1.52;0.90;;;13.20;95.70;;;;;;4993479;28;20474;-74
2021/05/26 05:35:28;;;;;;;2.78;1.00;;;13.20;94.30;;;;;;4993723;28;20034;-73
2021/05/26 05:37:54;;;;;;;7.47;1.10;;;13.00;93.90;;;;;;4993262;28;20494;-73
2021/05/26 05:40:19;;;;;;;2.30;1.02;;;12.90;93.40;;;;;;4993624;28;20121;-74
2021/05/26 05:42:45;;;;;;;3.15;1.05;;;12.90;95.50;;;;;;4993660;28;20101;-74
2021/05/26 05:45:11;;;;;;;2.67;1.02;;;13.00;96.00;;;;;;4993486;28;20027;-74
2021/05/26 05:47:37;;;;;;;5.22;1.20;;;13.40;94.60;;;;;;4993653;28;20053;-74
2021/05/26 05:50:04;;;;;;;1.05;0.77;;;13.90;94.30;;;;;;4993169;28;20526;-73
2021/05/26 05:52:30;;;;;;;6.30;0.98;;;14.20;90.60;;;;;;4993613;28;20034;-73
2021/05/26 05:54:55;;;;;;;1.45;1.00;;;14.50;89.60;;;;;;4993138;28;20105;-74
2021/05/26 05:57:21;;;;;;;1.30;1.00;;;14.30;86.00;;;;;;4993247;28;20023;-74
2021/05/26 05:59:47;;;;;;;3.80;1.88;;;14.30;83.80;;;;;;4992963;28;20038;-74
2021/05/26 06:02:13;;;;;;;1.05;0.88;;;14.10;85.30;;;;;;5001944;28;20021;-74
2021/05/26 06:04:38;;;;;;;2.92;1.00;;;14.00;86.30;;;;;;5012707;28;20029;-74
2021/05/26 06:07:04;;;;;;;0.88;0.75;;;14.10;85.80;;;;;;5012534;28;20109;-74
2021/05/26 06:09:30;;;;;;;3.92;1.20;;;14.10;83.50;;;;;;5012628;28;20440;-73
2021/05/26 06:11:56;;;;;;;1.63;0.88;;;13.70;86.50;;;;;;5007874;28;20026;-69
2021/05/26 06:14:22;;;;;;;2.78;1.20;;;14.20;90.50;;;;;;5003289;28;20026;-69
2021/05/26 06:16:48;;;;;;;1.65;1.00;;;14.10;84.80;;;;;;5012670;28;20148;-69
2021/05/26 06:19:14;;;;;;;1.10;0.95;;;13.70;86.20;;;;;;5012691;28;20040;-69
2021/05/26 06:21:40;;;;;;;2.92;0.98;;;13.40;88.30;;;;;;5012715;28;20030;-69
2021/05/26 06:24:06;;;;;;;9.25;1.33;;;13.20;88.00;;;;;;5007805;28;20044;-69
2021/05/26 06:26:33;;;;;;;1.85;1.15;;;13.10;90.70;;;;;;5001302;28;20478;-69
2021/05/26 06:29:03;;;;;;;3.53;1.13;;;12.80;89.70;;;;;;4986226;28;20041;-68
2021/05/26 06:31:30;;;;;;;1.75;1.13;;;12.80;89.40;;;;;;5006624;28;20030;-68
2021/05/26 06:33:56;;;;;;;2.92;1.33;;;12.80;90.90;;;;;;5009405;28;20018;-68
2021/05/26 06:36:22;;;;;;;1.65;1.27;;;12.60;90.90;;;;;;5011867;28;20495;-68
2021/05/26 06:38:47;;;;;;;1.30;1.20;;;12.50;90.00;;;;;;5012304;28;20117;-68
2021/05/26 06:41:13;;;;;;;1.70;1.40;;;11.90;91.60;;;;;;5012261;28;20029;-68
2021/05/26 06:43:40;;;;;;;2.97;1.60;;;11.50;93.90;;;;;;5012354;28;20076;-67
2021/05/26 06:46:06;;;;;;;1.55;1.33;;;11.50;94.80;;;;;;5012251;28;20040;-67
2021/05/26 06:48:31;;;;;;;3.47;1.40;;;11.70;95.50;;;;;;5012237;28;20041;-69
2021/05/26 06:50:57;;;;;;;3.30;1.50;;;11.70;93.90;;;;;;5011997;28;20461;-69
2021/05/26 06:53:25;;;;;;;2.15;1.58;;;11.40;94.60;;;;;;5012153;28;20041;-71
2021/05/26 06:55:51;;;;;;;4.75;1.55;;;11.30;95.40;;;;;;5012039;28;20386;-70
2021/05/26 06:58:17;;;;;;;1.63;1.20;;;11.30;97.10;;;;;;5012015;28;20417;-68
2021/05/26 07:00:42;;;;;;;4.07;1.40;;;11.10;96.40;;;;;;5011379;28;20036;-68
2021/05/26 07:03:09;;;;;;;6.95;1.90;;;11.00;97.60;;;;;;5010443;28;20022;-68
2021/05/26 07:05:35;;;;;;;3.05;1.73;;;10.80;99.40;;;;;;5027370;28;20033;-70
2021/05/26 07:08:01;;;;;;;3.80;1.40;;;11.00;99.50;;;;;;5019471;28;20045;-69
2021/05/26 07:10:26;;;;;;;4.20;1.70;;;11.00;98.50;;;;;;4993999;28;20127;-69
2021/05/26 07:12:52;;;;;;;2.90;1.25;;;11.10;99.20;;;;;;5008566;28;20026;-70
2021/05/26 07:15:19;;;;;;;1.75;1.48;;;11.20;98.60;;;;;;5011620;28;20106;-70
2021/05/26 07:17:45;;;;;;;1.60;1.20;;;11.20;98.00;;;;;;4985258;28;20393;-69
2021/05/26 07:20:12;;;;;;;5.30;1.58;;;11.10;98.10;;;;;;4993949;28;20048;-68
2021/05/26 07:22:38;;;;;;;4.40;1.40;;;11.30;99.90;;;;;;4995991;28;20034;-69
2021/05/26 07:25:04;;;;;;;2.33;1.33;;;12.20;99.90;;;;;;4995954;28;20053;-69
2021/05/26 07:27:30;;;;;;;2.75;1.27;;;12.20;96.40;;;;;;4996039;28;20053;-69
2021/05/26 07:29:56;;;;;;;11.80;1.42;;;12.00;97.70;;;;;;4996106;28;20067;-70
2021/05/26 07:32:22;;;;;;;7.63;1.95;;;11.70;99.60;;;;;;4996156;28;20034;-70
2021/05/26 07:34:48;;;;;;;3.33;1.38;;;11.40;99.90;;;;;;4995898;28;20452;-70
2021/05/26 07:37:14;;;;;;;7.85;1.65;;;11.30;99.90;;;;;;4995604;28;20549;-70
2021/05/26 07:39:39;;;;;;;2.47;1.70;;;11.20;99.90;;;;;;4995566;28;20121;-72
2021/05/26 07:42:07;;;;;;;4.53;1.30;;;11.20;99.90;;;;;;4995552;28;20109;-70
2021/05/26 07:44:34;;;;;;;1.60;1.38;;;11.20;99.90;;;;;;4995570;28;20022;-70
2021/05/26 07:47:00;;;;;;;1.98;1.10;;;11.20;99.90;;;;;;5011380;28;20495;-71
2021/05/26 07:49:25;;;;;;;2.50;1.40;;;11.20;99.90;;;;;;5007084;28;20030;-72
2021/05/26 07:51:52;;;;;;;2.00;1.33;;;11.20;99.90;;;;;;5009660;28;20014;-72
2021/05/26 07:54:18;;;;;;;2.42;1.27;;;11.10;99.90;;;;;;5000894;28;20023;-71
2021/05/26 07:56:45;;;;;;;1.98;1.17;;;11.10;99.90;;;;;;5004282;28;20386;-72
2021/05/26 07:59:11;;;;;;;2.55;1.33;;;11.20;99.90;;;;;;5006097;28;20044;-71
2021/05/26 08:01:36;;;;;;;7.20;1.45;;;11.10;99.90;;;;;;5012110;28;20025;-72
2021/05/26 08:04:03;;;;;;;4.18;1.38;;;11.00;99.90;;;;;;5015099;28;20029;-71
2021/05/26 08:06:28;;;;;;;4.30;1.13;;;11.10;99.90;;;;;;5018276;28;20097;-71
2021/05/26 08:08:54;;;;;;;3.08;1.20;;;11.30;99.90;;;;;;5019169;28;20456;-70
2021/05/26 08:11:20;;;;;;;1.30;0.90;;;11.50;99.90;;;;;;5014196;28;20040;-71
2021/05/26 08:13:46;;;;;;;2.42;1.30;;;11.70;99.90;;;;;;5015016;28;20050;-71
2021/05/26 08:16:11;;;;;;;4.70;1.30;;;11.60;99.90;;;;;;5026346;28;20032;-71
2021/05/26 08:18:37;;;;;;;2.03;1.55;;;11.70;99.90;;;;;;5022343;28;20366;-72
2021/05/26 08:21:04;;;;;;;2.20;1.20;;;11.70;99.90;;;;;;5034627;28;20080;-72
2021/05/26 08:23:30;;;;;;;5.30;1.25;;;11.80;99.90;;;;;;5034409;28;20053;-72
2021/05/26 08:25:55;;;;;;;4.78;1.55;;;11.80;99.90;;;;;;5034567;28;20060;-72
2021/05/26 08:28:21;;;;;;;3.55;1.27;;;11.70;99.90;;;;;;5034219;28;20500;-73
2021/05/26 08:30:47;;;;;;;4.88;1.13;;;11.60;99.90;;;;;;5033694;28;20068;-72
2021/05/26 08:33:13;;;;;;;2.33;1.05;;;11.60;99.90;;;;;;5016619;28;20021;-72
2021/05/26 08:35:39;;;;;;;2.03;1.00;;;11.60;99.90;;;;;;5033874;28;20599;-71
2021/05/26 08:38:05;;;;;;;3.80;1.25;;;11.60;99.90;;;;;;5033634;28;20045;-70
2021/05/26 08:40:31;;;;;;;3.25;1.10;;;11.60;99.90;;;;;;5034198;28;20473;-72
2021/05/26 08:42:58;;;;;;;1.77;0.80;;;11.70;99.90;;;;;;5030788;28;20017;-73
2021/05/26 08:45:24;;;;;;;3.38;1.13;;;11.60;99.90;;;;;;4986254;28;20083;-79
2021/05/26 08:47:53;;;;;;;3.88;1.00;;;11.50;99.90;;;;;;4999073;28;20427;-79
2021/05/26 08:50:19;;;;;;;3.70;1.30;;;11.50;99.90;;;;;;4994470;28;20470;-78
2021/05/26 08:52:46;;;;;;;6.22;1.40;;;11.40;99.90;;;;;;4994746;28;20046;-82
2021/05/26 08:55:17;;;;;;;3.50;1.02;;;12.30;99.90;;;;;;5002765;28;20028;-79
2021/05/26 08:57:43;;;;;;;1.38;0.90;;;12.30;99.90;;;;;;5003172;28;20108;-80
2021/05/26 09:00:10;;;;;;;2.38;0.90;;;12.20;99.90;;;;;;5007678;28;20061;-88
2021/05/26 09:02:36;;;;;;;3.08;1.05;;;12.00;99.90;;;;;;5013439;28;20050;-78
2021/05/26 09:05:02;;;;;;;2.90;1.20;;;12.00;99.90;;;;;;5009752;28;20064;-78
2021/05/26 09:07:34;;;;;;;2.35;1.10;;;11.90;99.90;;;;;;4994345;28;20026;-78
2021/05/26 09:10:06;;;;;;;7.10;1.10;;;11.70;99.90;;;;;;4994627;28;20410;-73
2021/05/26 09:12:38;;;;;;;1.95;1.20;;;11.60;99.90;;;;;;5013661;28;20092;-69
2021/05/26 09:15:07;;;;;;;1.45;1.13;;;11.70;99.90;;;;;;5013588;28;20438;-71
2021/05/26 09:17:33;;;;;;;8.93;1.10;;;12.00;99.90;;;;;;4995729;28;20026;-70
2021/05/26 09:20:11;;;;;;;2.58;0.80;;;12.00;99.90;;;;;;5013358;28;20529;-69
2021/05/26 09:22:37;;;;;;;2.25;0.93;;;12.00;99.90;;;;;;5013726;28;20068;-69
2021/05/26 09:25:10;;;;;;;2.65;1.00;;;11.90;99.90;;;;;;5013211;28;20026;-69
2021/05/26 09:27:35;;;;;;;6.82;1.08;;;11.80;99.90;;;;;;5013310;28;20040;-69
2021/05/26 09:30:02;;;;;;;2.05;1.20;;;11.80;99.90;;;;;;5013178;28;20022;-69
2021/05/26 09:32:30;;;;;;;1.85;0.90;;;11.70;99.90;;;;;;4995662;28;20030;-68
2021/05/26 09:35:00;;;;;;;1.02;0.85;;;11.70;99.90;;;;;;4995992;28;20045;-68
2021/05/26 09:37:31;;;;;;;3.80;1.00;;;11.70;99.90;;;;;;5012944;28;20509;-70
2021/05/26 09:40:02;;;;;;;2.95;1.30;;;11.60;99.90;;;;;;5013136;28;20485;-70
2021/05/26 09:42:28;;;;;;;1.58;1.00;;;11.50;99.90;;;;;;5012476;28;20026;-70
2021/05/26 09:45:04;;;;;;;2.53;0.95;;;11.60;99.90;;;;;;5012962;28;20049;-70
2021/05/26 09:47:53;;;;;;;30.05;2.50;;;11.70;99.90;;;;;;5013259;28;20437;-72
2021/05/26 09:50:36;;;;;;;3.40;1.02;;;11.60;99.90;;;;;;5013025;28;20041;-73
2021/05/26 09:53:12;;;;;;;0.88;0.88;;;11.50;99.90;;;;;;5012862;28;20026;-72
2021/05/26 09:55:39;;;;;;;2.95;1.90;;;11.40;99.90;;;;;;5013073;28;20029;-73
2021/05/26 09:58:10;;;;;;;1.13;0.90;;;11.40;99.90;;;;;;5013010;28;20057;-73
2021/05/26 10:00:38;;;;;;;2.47;1.60;;;11.40;99.90;;;;;;5013134;28;20410;-72
2021/05/26 10:03:04;;;;;;;1.70;1.40;;;11.30;99.90;;;;;;5012671;28;20109;-72
2021/05/26 10:05:30;;;;;;;8.52;1.65;;;11.30;99.90;;;;;;5012855;28;20026;-73
2021/05/26 10:08:02;;;;;;;4.10;1.70;;;11.30;99.90;;;;;;5012589;28;20028;-70
2021/05/26 10:10:30;;;;;;;3.25;1.80;;;11.20;99.90;;;;;;5001556;28;20064;-70
2021/05/26 10:13:03;;;;;;;8.02;1.80;;;11.00;99.90;;;;;;4992927;28;20034;-70
2021/05/26 10:15:29;;;;;;;2.20;1.73;;;10.90;99.90;;;;;;4993155;28;20363;-70
2021/05/26 10:17:59;;;;;;;2.28;1.73;;;10.80;99.90;;;;;;4992840;28;20490;-70
2021/05/26 10:20:31;;;;;;;3.43;1.30;;;10.70;99.90;;;;;;4992901;28;20038;-70
2021/05/26 10:22:58;;;;;;;2.17;1.77;;;10.70;99.90;;;;;;4993002;28;20268;-70
2021/05/26 10:25:25;;;;;;;4.30;1.63;;;10.80;99.90;;;;;;4992867;28;20466;-70
2021/05/26 10:27:55;;;;;;;2.67;1.20;;;10.80;99.90;;;;;;4992699;28;20479;-68
2021/05/26 10:30:27;;;;;;;3.53;1.70;;;10.80;99.90;;;;;;4992974;28;20057;-68
2021/05/26 10:33:01;;;;;;;5.40;1.35;;;11.00;99.90;;;;;;4992751;28;20029;-68
2021/05/26 10:35:57;;;;;;;3.97;1.70;;;11.10;99.90;;;;;;5004249;28;20049;-73
2021/05/26 10:38:23;;;;;;;2.05;1.50;;;11.20;99.90;;;;;;4990853;28;20046;-69
2021/05/26 10:40:54;;;;;;;5.95;1.75;;;11.30;99.90;;;;;;5001130;28;20597;-71
2021/05/26 10:43:20;;;;;;;2.92;1.80;;;11.10;99.90;;;;;;4996064;28;20029;-72
2021/05/26 10:45:52;;;;;;;2.90;1.70;;;11.00;99.90;;;;;;4992440;28;20026;-71
2021/05/26 10:48:40;;;;;;;9.95;1.90;;;10.90;99.90;;;;;;4992462;28;20022;-72
2021/05/26 10:51:07;;;;;;;6.40;1.77;;;11.00;99.90;;;;;;4992658;28;20457;-69
2021/05/26 10:53:43;;;;;;;3.50;1.92;;;11.00;99.90;;;;;;4993449;28;20544;-72
2021/05/26 10:56:34;;;;;;;5.55;1.55;;;11.00;99.90;;;;;;4996514;28;20418;-69
2021/05/26 10:59:15;;;;;;;4.57;1.90;;;10.90;99.90;;;;;;4996463;28;20022;-71
2021/05/26 11:02:03;;;;;;;5.28;1.85;;;10.90;99.90;;;;;;4996755;28;20036;-71
2021/05/26 11:04:29;;;;;;;4.22;1.67;;;10.90;99.90;;;;;;4996723;28;20030;-72
2021/05/26 11:07:18;;;;;;;2.65;1.83;;;11.00;99.90;;;;;;4996451;28;20027;-69
2021/05/26 11:10:02;;;;;;;5.03;1.90;;;10.90;99.90;;;;;;4996342;28;20030;-69
2021/05/26 11:12:29;;;;;;;3.17;1.85;;;10.90;99.90;;;;;;4996247;28;20030;-71
2021/05/26 11:14:55;;;;;;;3.58;1.58;;;11.00;99.90;;;;;;4996337;28;20048;-71
2021/05/26 11:17:26;;;;;;;3.97;1.60;;;11.00;99.90;;;;;;5007197;28;20029;-73
2021/05/26 11:20:28;;;;;;;2.45;1.88;;;11.10;99.90;;;;;;5015670;28;20038;-73
2021/05/26 11:22:54;;;;;;;3.15;1.90;;;11.10;99.90;;;;;;4935419;29;20035;-72
2021/05/26 11:25:19;;;;;;;3.50;1.80;;;11.00;99.90;;;;;;4999407;28;20034;-72
2021/05/26 11:27:49;;;;;;;3.10;1.85;;;11.10;99.90;;;;;;5015557;28;20025;-72
2021/05/26 11:30:19;;;;;;;2.20;1.73;;;11.00;99.90;;;;;;5015498;28;20539;-72
2021/05/26 11:32:45;;;;;;;;;;;11.00;99.90;;;;;;5011645;28;20117;-72
2021/05/26 11:35:12;;;;;;;3.05;1.70;;;11.00;99.90;;;;;;5010730;28;19944;-71
2021/05/26 11:37:41;;;;;;;4.25;1.70;;;11.00;99.90;;;;;;5015115;28;20053;-72
2021/05/26 11:40:23;;;;;;;7.88;2.20;;;11.00;99.90;;;;;;5015393;28;20050;-72
2021/05/26 11:42:49;;;;;;;2.20;1.55;;;10.90;99.90;;;;;;5015626;28;20026;-72
2021/05/26 11:45:15;;;;;;;1.70;1.60;;;10.90;99.90;;;;;;5015068;28;20144;-71
2021/05/26 11:47:45;;;;;;;6.45;2.58;;;10.90;99.90;;;;;;5015465;28;20065;-71
2021/05/26 11:50:16;;;;;;;3.23;1.90;;;11.00;99.90;;;;;;5015190;28;20116;-71
2021/05/26 11:52:44;;;;;;;1.95;1.70;;;11.10;99.90;;;;;;5015163;28;20335;-71
2021/05/26 11:55:10;;;;;;;2.65;1.30;;;11.10;99.90;;;;;;5014954;28;20033;-71
2021/05/26 11:57:44;;;;;;;2.75;1.50;;;11.20;99.90;;;;;;5015430;28;20041;-71
2021/05/26 12:00:11;;;;;;;3.38;1.50;;;11.20;99.90;;;;;;5014974;28;20029;-71
2021/05/26 12:03:03;;;;;;;3.38;1.60;;;11.20;99.90;;;;;;5014978;28;20045;-71
2021/05/26 12:05:51;;;;;;;4.20;1.77;;;11.20;99.90;;;;;;5014452;28;20022;-71
2021/05/26 12:08:24;;;;;;;2.28;1.30;;;11.20;99.90;;;;;;5014962;28;20032;-71
2021/05/26 12:11:09;;;;;;;2.85;1.40;;;11.30;99.90;;;;;;5014837;28;20034;-71
2021/05/26 12:13:38;;;;;;;2.13;1.38;;;11.30;99.90;;;;;;5015121;28;20044;-71
2021/05/26 12:16:09;;;;;;;4.40;1.52;;;11.30;99.90;;;;;;5014588;28;20030;-71
2021/05/26 12:18:36;;;;;;;1.55;1.35;;;11.30;99.90;;;;;;5014878;28;20119;-71
2021/05/26 12:21:03;;;;;;;3.40;1.40;;;11.30;99.90;;;;;;5014705;28;20026;-71
2021/05/26 12:23:47;;;;;;;5.53;1.52;;;11.40;99.90;;;;;;5014744;28;20030;-71
2021/05/26 12:26:23;;;;;;;3.90;1.40;;;11.40;99.90;;;;;;5014470;28;20026;-70
2021/05/26 12:28:50;;;;;;;5.07;1.52;;;11.30;99.90;;;;;;5014574;28;20065;-69
2021/05/26 12:31:17;;;;;;;2.53;1.67;;;11.40;99.90;;;;;;5007482;28;20033;-70
2021/05/26 12:33:47;;;;;;;1.30;1.20;;;11.40;99.90;;;;;;5000243;28;20022;-72
2021/05/26 12:36:14;;;;;;;3.60;1.50;;;11.40;99.90;;;;;;4994508;28;20022;-72
2021/05/26 12:38:42;;;;;;;3.10;1.27;;;11.30;99.90;;;;;;4994472;28;20047;-72
2021/05/26 12:41:25;;;;;;;2.85;1.73;;;11.30;99.90;;;;;;4994774;28;20092;-70
2021/05/26 12:43:52;;;;;;;5.22;1.10;;;11.20;99.90;;;;;;4994733;28;20022;-70
2021/05/26 12:46:36;;;;;;;4.68;1.40;;;11.20;99.90;;;;;;4994673;28;20063;-70
2021/05/26 12:49:04;;;;;;;1.17;1.02;;;11.10;99.90;;;;;;4994466;28;20053;-71
2021/05/26 12:51:39;;;;;;;1.33;1.17;;;11.10;99.90;;;;;;4994529;28;20038;-71
2021/05/26 12:54:04;;;;;;;2.63;1.50;;;11.20;99.90;;;;;;4994494;28;20109;-71
2021/05/26 12:56:30;;;;;;;4.55;1.50;;;11.20;99.90;;;;;;4994599;28;20070;-71